sensor_id;sensor_type;location;lat;lon;timestamp;P1;durP1;ratioP1;P2;durP2;ratioP2
4508;SDS011;2267;48.816;9.230;2023-02-08T00:00:52;16.93;;;15.43;;
4508;SDS011;2267;48.816;9.230;2023-02-08T00:03:19;17.10;;;15.50;;
4508;SDS011;2267;48.816;9.230;2023-02-08T00:05:46;18.10;;;16.50;;
4508;SDS011;2267;48.816;9.230;2023-02-08T00:08:13;16.63;;;15.20;;
4508;SDS011;2267;48.816;9.230;2023-02-08T00:10:41;17.17;;;15.57;;
4508;SDS011;2267;48.816;9.230;2023-02-08T00:13:09;16.93;;;15.33;;
4508;SDS011;2267;48.816;9.230;2023-02-08T00:15:39;15.97;;;14.50;;
4508;SDS011;2267;48.816;9.230;2023-02-08T00:18:07;17.20;;;15.53;;
4508;SDS011;2267;48.816;9.230;2023-02-08T00:20:36;17.80;;;16.20;;
4508;SDS011;2267;48.816;9.230;2023-02-08T00:23:05;17.60;;;15.90;;
4508;SDS011;2267;48.816;9.230;2023-02-08T00:25:32;16.47;;;15.03;;
4508;SDS011;2267;48.816;9.230;2023-02-08T00:27:59;15.03;;;13.70;;
4508;SDS011;2267;48.816;9.230;2023-02-08T00:30:29;16.57;;;14.97;;
4508;SDS011;2267;48.816;9.230;2023-02-08T00:32:56;17.97;;;16.23;;
4508;SDS011;2267;48.816;9.230;2023-02-08T00:35:23;17.57;;;15.90;;
4508;SDS011;2267;48.816;9.230;2023-02-08T00:37:50;17.23;;;15.73;;
4508;SDS011;2267;48.816;9.230;2023-02-08T00:40:16;16.90;;;15.40;;
4508;SDS011;2267;48.816;9.230;2023-02-08T00:42:43;16.00;;;14.53;;
4508;SDS011;2267;48.816;9.230;2023-02-08T00:45:10;16.83;;;15.40;;
4508;SDS011;2267;48.816;9.230;2023-02-08T00:47:37;16.50;;;15.10;;
4508;SDS011;2267;48.816;9.230;2023-02-08T00:50:04;16.27;;;14.77;;
4508;SDS011;2267;48.816;9.230;2023-02-08T00:52:32;16.60;;;15.10;;
4508;SDS011;2267;48.816;9.230;2023-02-08T00:54:59;17.37;;;15.73;;
4508;SDS011;2267;48.816;9.230;2023-02-08T00:57:25;16.60;;;15.10;;
4508;SDS011;2267;48.816;9.230;2023-02-08T00:59:52;14.70;;;13.37;;
4508;SDS011;2267;48.816;9.230;2023-02-08T01:02:19;15.43;;;14.03;;
4508;SDS011;2267;48.816;9.230;2023-02-08T01:04:46;17.43;;;15.70;;
4508;SDS011;2267;48.816;9.230;2023-02-08T01:07:13;15.83;;;14.40;;
4508;SDS011;2267;48.816;9.230;2023-02-08T01:09:40;15.43;;;14.13;;
4508;SDS011;2267;48.816;9.230;2023-02-08T01:12:07;15.70;;;14.20;;
4508;SDS011;2267;48.816;9.230;2023-02-08T01:14:35;15.40;;;14.00;;
4508;SDS011;2267;48.816;9.230;2023-02-08T01:17:03;14.93;;;13.63;;
4508;SDS011;2267;48.816;9.230;2023-02-08T01:19:30;16.50;;;15.00;;
4508;SDS011;2267;48.816;9.230;2023-02-08T01:21:57;15.37;;;14.07;;
4508;SDS011;2267;48.816;9.230;2023-02-08T01:24:24;15.20;;;13.80;;
4508;SDS011;2267;48.816;9.230;2023-02-08T01:26:50;16.90;;;15.27;;
4508;SDS011;2267;48.816;9.230;2023-02-08T01:29:17;15.97;;;14.47;;
4508;SDS011;2267;48.816;9.230;2023-02-08T01:31:44;14.73;;;13.43;;
4508;SDS011;2267;48.816;9.230;2023-02-08T01:34:11;15.10;;;13.70;;
4508;SDS011;2267;48.816;9.230;2023-02-08T01:36:39;15.93;;;14.43;;
4508;SDS011;2267;48.816;9.230;2023-02-08T01:39:06;15.47;;;14.00;;
4508;SDS011;2267;48.816;9.230;2023-02-08T01:41:36;17.03;;;15.27;;
4508;SDS011;2267;48.816;9.230;2023-02-08T01:47:13;16.20;;;14.50;;
4508;SDS011;2267;48.816;9.230;2023-02-08T01:49:40;16.37;;;14.80;;
4508;SDS011;2267;48.816;9.230;2023-02-08T01:52:16;14.57;;;13.37;;
4508;SDS011;2267;48.816;9.230;2023-02-08T01:57:38;15.70;;;14.20;;
4508;SDS011;2267;48.816;9.230;2023-02-08T02:00:07;15.17;;;13.73;;
4508;SDS011;2267;48.816;9.230;2023-02-08T02:02:35;17.13;;;15.50;;
4508;SDS011;2267;48.816;9.230;2023-02-08T02:05:03;15.83;;;14.43;;
4508;SDS011;2267;48.816;9.230;2023-02-08T02:07:31;15.67;;;14.30;;
4508;SDS011;2267;48.816;9.230;2023-02-08T02:10:00;14.93;;;13.43;;
4508;SDS011;2267;48.816;9.230;2023-02-08T02:12:32;16.23;;;14.80;;
4508;SDS011;2267;48.816;9.230;2023-02-08T02:15:03;15.57;;;14.07;;
4508;SDS011;2267;48.816;9.230;2023-02-08T02:17:31;15.83;;;14.33;;
4508;SDS011;2267;48.816;9.230;2023-02-08T02:54:22;16.13;;;14.73;;
4508;SDS011;2267;48.816;9.230;2023-02-08T02:57:09;16.30;;;14.90;;
4508;SDS011;2267;48.816;9.230;2023-02-08T02:59:39;15.60;;;14.20;;
4508;SDS011;2267;48.816;9.230;2023-02-08T03:02:08;16.77;;;15.10;;
4508;SDS011;2267;48.816;9.230;2023-02-08T03:12:39;15.23;;;13.83;;
4508;SDS011;2267;48.816;9.230;2023-02-08T03:23:55;14.70;;;13.40;;
4508;SDS011;2267;48.816;9.230;2023-02-08T03:31:52;17.70;;;15.90;;
4508;SDS011;2267;48.816;9.230;2023-02-08T03:34:27;16.27;;;14.77;;
4508;SDS011;2267;48.816;9.230;2023-02-08T03:37:14;17.67;;;16.10;;
4508;SDS011;2267;48.816;9.230;2023-02-08T03:39:48;17.20;;;15.70;;
4508;SDS011;2267;48.816;9.230;2023-02-08T03:42:19;17.33;;;15.63;;
4508;SDS011;2267;48.816;9.230;2023-02-08T03:45:11;17.60;;;15.90;;
4508;SDS011;2267;48.816;9.230;2023-02-08T03:47:40;16.17;;;14.77;;
4508;SDS011;2267;48.816;9.230;2023-02-08T03:50:11;17.60;;;16.10;;
4508;SDS011;2267;48.816;9.230;2023-02-08T03:52:43;17.33;;;15.67;;
4508;SDS011;2267;48.816;9.230;2023-02-08T03:55:23;17.37;;;15.77;;
4508;SDS011;2267;48.816;9.230;2023-02-08T03:57:56;16.03;;;14.70;;
4508;SDS011;2267;48.816;9.230;2023-02-08T04:00:41;17.00;;;15.50;;
4508;SDS011;2267;48.816;9.230;2023-02-08T04:03:18;15.60;;;14.20;;
4508;SDS011;2267;48.816;9.230;2023-02-08T04:05:48;15.97;;;14.57;;
4508;SDS011;2267;48.816;9.230;2023-02-08T04:08:15;17.67;;;15.97;;
4508;SDS011;2267;48.816;9.230;2023-02-08T04:10:42;16.13;;;14.70;;
4508;SDS011;2267;48.816;9.230;2023-02-08T04:13:10;15.90;;;14.20;;
4508;SDS011;2267;48.816;9.230;2023-02-08T04:15:36;17.20;;;15.63;;
4508;SDS011;2267;48.816;9.230;2023-02-08T04:18:03;15.67;;;14.27;;
4508;SDS011;2267;48.816;9.230;2023-02-08T04:20:30;19.50;;;17.60;;
4508;SDS011;2267;48.816;9.230;2023-02-08T04:22:57;18.50;;;16.80;;
4508;SDS011;2267;48.816;9.230;2023-02-08T04:25:24;15.00;;;13.70;;
4508;SDS011;2267;48.816;9.230;2023-02-08T04:27:52;14.90;;;13.60;;
4508;SDS011;2267;48.816;9.230;2023-02-08T04:30:18;17.13;;;15.50;;
4508;SDS011;2267;48.816;9.230;2023-02-08T04:32:45;16.03;;;14.60;;
4508;SDS011;2267;48.816;9.230;2023-02-08T04:35:12;17.23;;;15.63;;
4508;SDS011;2267;48.816;9.230;2023-02-08T04:37:39;16.00;;;14.60;;
4508;SDS011;2267;48.816;9.230;2023-02-08T04:40:06;16.00;;;14.60;;
4508;SDS011;2267;48.816;9.230;2023-02-08T04:42:33;16.00;;;14.40;;
4508;SDS011;2267;48.816;9.230;2023-02-08T04:45:00;20.00;;;18.17;;
4508;SDS011;2267;48.816;9.230;2023-02-08T04:47:27;18.97;;;17.10;;
4508;SDS011;2267;48.816;9.230;2023-02-08T04:49:53;17.80;;;16.10;;
4508;SDS011;2267;48.816;9.230;2023-02-08T04:52:20;17.30;;;15.80;;
4508;SDS011;2267;48.816;9.230;2023-02-08T04:54:47;18.27;;;16.57;;
4508;SDS011;2267;48.816;9.230;2023-02-08T04:57:14;19.03;;;17.13;;
4508;SDS011;2267;48.816;9.230;2023-02-08T04:59:41;18.07;;;16.40;;
4508;SDS011;2267;48.816;9.230;2023-02-08T05:02:08;19.80;;;17.90;;
4508;SDS011;2267;48.816;9.230;2023-02-08T05:04:35;17.87;;;16.30;;
4508;SDS011;2267;48.816;9.230;2023-02-08T05:07:01;16.00;;;14.60;;
4508;SDS011;2267;48.816;9.230;2023-02-08T05:09:28;17.33;;;15.43;;
4508;SDS011;2267;48.816;9.230;2023-02-08T05:11:55;17.93;;;16.13;;
4508;SDS011;2267;48.816;9.230;2023-02-08T05:14:22;17.23;;;15.63;;
4508;SDS011;2267;48.816;9.230;2023-02-08T05:16:49;17.93;;;16.23;;
4508;SDS011;2267;48.816;9.230;2023-02-08T05:19:15;17.60;;;16.00;;
4508;SDS011;2267;48.816;9.230;2023-02-08T05:21:42;18.93;;;17.07;;
4508;SDS011;2267;48.816;9.230;2023-02-08T05:24:09;17.67;;;16.00;;
4508;SDS011;2267;48.816;9.230;2023-02-08T05:26:38;16.97;;;15.40;;
4508;SDS011;2267;48.816;9.230;2023-02-08T05:29:05;18.80;;;17.00;;
4508;SDS011;2267;48.816;9.230;2023-02-08T05:31:32;17.53;;;15.93;;
4508;SDS011;2267;48.816;9.230;2023-02-08T05:33:59;17.43;;;15.93;;
4508;SDS011;2267;48.816;9.230;2023-02-08T05:36:25;16.87;;;15.40;;
4508;SDS011;2267;48.816;9.230;2023-02-08T05:38:52;17.00;;;15.40;;
4508;SDS011;2267;48.816;9.230;2023-02-08T05:41:19;17.57;;;15.87;;
4508;SDS011;2267;48.816;9.230;2023-02-08T05:43:46;16.70;;;15.20;;
4508;SDS011;2267;48.816;9.230;2023-02-08T05:46:13;18.37;;;16.57;;
4508;SDS011;2267;48.816;9.230;2023-02-08T05:48:40;17.70;;;16.10;;
4508;SDS011;2267;48.816;9.230;2023-02-08T05:51:07;19.13;;;17.23;;
4508;SDS011;2267;48.816;9.230;2023-02-08T05:53:34;18.77;;;17.07;;
4508;SDS011;2267;48.816;9.230;2023-02-08T05:56:02;18.47;;;16.70;;
4508;SDS011;2267;48.816;9.230;2023-02-08T05:58:29;18.97;;;17.23;;
4508;SDS011;2267;48.816;9.230;2023-02-08T06:00:56;18.63;;;16.93;;
4508;SDS011;2267;48.816;9.230;2023-02-08T06:03:22;17.90;;;16.10;;
4508;SDS011;2267;48.816;9.230;2023-02-08T06:05:49;19.50;;;17.50;;
4508;SDS011;2267;48.816;9.230;2023-02-08T06:08:16;18.90;;;17.00;;
4508;SDS011;2267;48.816;9.230;2023-02-08T06:10:43;18.70;;;17.00;;
4508;SDS011;2267;48.816;9.230;2023-02-08T06:13:13;19.67;;;17.70;;
4508;SDS011;2267;48.816;9.230;2023-02-08T06:15:41;19.90;;;17.90;;
4508;SDS011;2267;48.816;9.230;2023-02-08T06:18:08;19.23;;;17.50;;
4508;SDS011;2267;48.816;9.230;2023-02-08T06:20:34;18.70;;;17.10;;
4508;SDS011;2267;48.816;9.230;2023-02-08T06:23:01;20.00;;;17.90;;
4508;SDS011;2267;48.816;9.230;2023-02-08T06:25:28;20.10;;;18.10;;
4508;SDS011;2267;48.816;9.230;2023-02-08T06:27:55;20.03;;;18.13;;
4508;SDS011;2267;48.816;9.230;2023-02-08T06:30:23;20.13;;;18.13;;
4508;SDS011;2267;48.816;9.230;2023-02-08T06:32:50;18.60;;;16.83;;
4508;SDS011;2267;48.816;9.230;2023-02-08T06:35:17;17.97;;;16.37;;
4508;SDS011;2267;48.816;9.230;2023-02-08T06:37:44;19.40;;;17.70;;
4508;SDS011;2267;48.816;9.230;2023-02-08T06:40:11;18.90;;;17.17;;
4508;SDS011;2267;48.816;9.230;2023-02-08T06:42:38;19.03;;;17.23;;
4508;SDS011;2267;48.816;9.230;2023-02-08T06:45:05;18.80;;;16.90;;
4508;SDS011;2267;48.816;9.230;2023-02-08T06:47:36;19.63;;;17.80;;
4508;SDS011;2267;48.816;9.230;2023-02-08T06:50:03;20.73;;;18.73;;
4508;SDS011;2267;48.816;9.230;2023-02-08T06:52:31;18.60;;;16.97;;
4508;SDS011;2267;48.816;9.230;2023-02-08T06:54:58;19.03;;;17.33;;
4508;SDS011;2267;48.816;9.230;2023-02-08T06:57:25;19.27;;;17.17;;
4508;SDS011;2267;48.816;9.230;2023-02-08T06:59:52;19.43;;;17.73;;
4508;SDS011;2267;48.816;9.230;2023-02-08T07:02:19;17.97;;;16.10;;
4508;SDS011;2267;48.816;9.230;2023-02-08T07:04:46;20.50;;;18.43;;
4508;SDS011;2267;48.816;9.230;2023-02-08T07:07:15;20.17;;;18.27;;
4508;SDS011;2267;48.816;9.230;2023-02-08T07:09:43;20.63;;;18.43;;
4508;SDS011;2267;48.816;9.230;2023-02-08T07:12:10;19.57;;;17.70;;
4508;SDS011;2267;48.816;9.230;2023-02-08T07:14:40;18.80;;;16.80;;
4508;SDS011;2267;48.816;9.230;2023-02-08T07:17:09;20.77;;;17.80;;
4508;SDS011;2267;48.816;9.230;2023-02-08T07:19:36;19.50;;;17.53;;
4508;SDS011;2267;48.816;9.230;2023-02-08T07:22:03;19.67;;;17.80;;
4508;SDS011;2267;48.816;9.230;2023-02-08T07:24:37;17.80;;;15.90;;
4508;SDS011;2267;48.816;9.230;2023-02-08T07:27:05;20.97;;;18.97;;
4508;SDS011;2267;48.816;9.230;2023-02-08T07:29:33;20.03;;;18.10;;
4508;SDS011;2267;48.816;9.230;2023-02-08T07:32:01;20.63;;;18.60;;
4508;SDS011;2267;48.816;9.230;2023-02-08T07:34:30;19.83;;;17.93;;
4508;SDS011;2267;48.816;9.230;2023-02-08T07:36:59;20.53;;;18.40;;
4508;SDS011;2267;48.816;9.230;2023-02-08T07:39:26;19.73;;;17.73;;
4508;SDS011;2267;48.816;9.230;2023-02-08T07:41:53;21.80;;;19.83;;
4508;SDS011;2267;48.816;9.230;2023-02-08T07:44:20;21.60;;;19.60;;
4508;SDS011;2267;48.816;9.230;2023-02-08T07:46:46;22.13;;;19.90;;
4508;SDS011;2267;48.816;9.230;2023-02-08T07:49:13;38.60;;;34.80;;
4508;SDS011;2267;48.816;9.230;2023-02-08T07:51:40;49.73;;;45.00;;
4508;SDS011;2267;48.816;9.230;2023-02-08T07:54:07;37.60;;;34.07;;
4508;SDS011;2267;48.816;9.230;2023-02-08T07:56:34;26.63;;;24.13;;
4508;SDS011;2267;48.816;9.230;2023-02-08T07:59:00;21.73;;;19.70;;
4508;SDS011;2267;48.816;9.230;2023-02-08T08:01:27;21.30;;;19.30;;
4508;SDS011;2267;48.816;9.230;2023-02-08T08:03:54;21.93;;;19.77;;
4508;SDS011;2267;48.816;9.230;2023-02-08T08:06:21;22.53;;;20.23;;
4508;SDS011;2267;48.816;9.230;2023-02-08T08:08:48;21.57;;;19.47;;
4508;SDS011;2267;48.816;9.230;2023-02-08T08:11:16;21.93;;;20.03;;
4508;SDS011;2267;48.816;9.230;2023-02-08T08:13:44;21.60;;;19.60;;
4508;SDS011;2267;48.816;9.230;2023-02-08T08:16:11;23.00;;;19.67;;
4508;SDS011;2267;48.816;9.230;2023-02-08T08:18:38;20.37;;;18.30;;
4508;SDS011;2267;48.816;9.230;2023-02-08T08:21:05;22.80;;;20.60;;
4508;SDS011;2267;48.816;9.230;2023-02-08T08:23:33;21.97;;;19.97;;
4508;SDS011;2267;48.816;9.230;2023-02-08T08:26:08;26.40;;;20.33;;
4508;SDS011;2267;48.816;9.230;2023-02-08T08:28:39;19.10;;;17.40;;
4508;SDS011;2267;48.816;9.230;2023-02-08T08:31:10;21.80;;;19.70;;
4508;SDS011;2267;48.816;9.230;2023-02-08T08:33:42;21.43;;;19.43;;
4508;SDS011;2267;48.816;9.230;2023-02-08T08:36:09;22.03;;;18.40;;
4508;SDS011;2267;48.816;9.230;2023-02-08T08:38:36;19.93;;;18.20;;
4508;SDS011;2267;48.816;9.230;2023-02-08T08:41:11;19.27;;;17.47;;
4508;SDS011;2267;48.816;9.230;2023-02-08T08:43:40;19.50;;;17.50;;
4508;SDS011;2267;48.816;9.230;2023-02-08T08:46:07;19.57;;;17.77;;
4508;SDS011;2267;48.816;9.230;2023-02-08T08:48:35;20.10;;;17.77;;
4508;SDS011;2267;48.816;9.230;2023-02-08T08:51:04;20.97;;;18.90;;
4508;SDS011;2267;48.816;9.230;2023-02-08T08:53:31;20.57;;;18.77;;
4508;SDS011;2267;48.816;9.230;2023-02-08T08:55:58;20.10;;;17.80;;
4508;SDS011;2267;48.816;9.230;2023-02-08T08:58:25;18.33;;;16.73;;
4508;SDS011;2267;48.816;9.230;2023-02-08T09:00:52;19.00;;;17.10;;
4508;SDS011;2267;48.816;9.230;2023-02-08T09:03:21;19.03;;;17.03;;
4508;SDS011;2267;48.816;9.230;2023-02-08T09:05:51;18.33;;;16.53;;
4508;SDS011;2267;48.816;9.230;2023-02-08T09:08:20;20.57;;;18.57;;
4508;SDS011;2267;48.816;9.230;2023-02-08T09:10:53;19.30;;;17.30;;
4508;SDS011;2267;48.816;9.230;2023-02-08T09:13:41;17.83;;;16.17;;
4508;SDS011;2267;48.816;9.230;2023-02-08T09:16:13;18.37;;;16.67;;
4508;SDS011;2267;48.816;9.230;2023-02-08T09:18:42;18.63;;;16.50;;
4508;SDS011;2267;48.816;9.230;2023-02-08T09:21:10;18.93;;;16.93;;
4508;SDS011;2267;48.816;9.230;2023-02-08T09:23:39;16.93;;;15.33;;
4508;SDS011;2267;48.816;9.230;2023-02-08T09:26:06;17.47;;;15.80;;
4508;SDS011;2267;48.816;9.230;2023-02-08T09:28:35;16.90;;;15.30;;
4508;SDS011;2267;48.816;9.230;2023-02-08T09:33:43;17.87;;;16.07;;
4508;SDS011;2267;48.816;9.230;2023-02-08T09:36:10;17.03;;;15.10;;
4508;SDS011;2267;48.816;9.230;2023-02-08T09:38:37;16.50;;;14.90;;
4508;SDS011;2267;48.816;9.230;2023-02-08T09:46:25;15.93;;;14.33;;
4508;SDS011;2267;48.816;9.230;2023-02-08T09:48:56;17.53;;;15.73;;
4508;SDS011;2267;48.816;9.230;2023-02-08T09:51:31;19.00;;;16.90;;
4508;SDS011;2267;48.816;9.230;2023-02-08T09:54:06;19.13;;;16.40;;
4508;SDS011;2267;48.816;9.230;2023-02-08T09:56:54;17.50;;;15.80;;
4508;SDS011;2267;48.816;9.230;2023-02-08T09:59:24;16.77;;;15.13;;
4508;SDS011;2267;48.816;9.230;2023-02-08T10:01:55;16.23;;;14.70;;
4508;SDS011;2267;48.816;9.230;2023-02-08T10:04:41;18.50;;;16.70;;
4508;SDS011;2267;48.816;9.230;2023-02-08T10:07:31;16.77;;;15.00;;
4508;SDS011;2267;48.816;9.230;2023-02-08T10:10:03;19.40;;;16.10;;
4508;SDS011;2267;48.816;9.230;2023-02-08T10:12:45;20.67;;;16.27;;
4508;SDS011;2267;48.816;9.230;2023-02-08T10:18:18;16.70;;;14.90;;
4508;SDS011;2267;48.816;9.230;2023-02-08T10:29:11;17.20;;;15.40;;
4508;SDS011;2267;48.816;9.230;2023-02-08T10:32:13;16.70;;;15.00;;
4508;SDS011;2267;48.816;9.230;2023-02-08T10:35:07;16.03;;;14.40;;
4508;SDS011;2267;48.816;9.230;2023-02-08T10:37:40;14.87;;;13.50;;
4508;SDS011;2267;48.816;9.230;2023-02-08T10:40:22;16.80;;;15.23;;
4508;SDS011;2267;48.816;9.230;2023-02-08T10:43:04;15.43;;;13.87;;
4508;SDS011;2267;48.816;9.230;2023-02-08T10:45:34;16.43;;;14.83;;
4508;SDS011;2267;48.816;9.230;2023-02-08T10:48:13;14.73;;;13.33;;
4508;SDS011;2267;48.816;9.230;2023-02-08T10:50:47;16.07;;;14.57;;
4508;SDS011;2267;48.816;9.230;2023-02-08T10:53:14;15.17;;;13.60;;
4508;SDS011;2267;48.816;9.230;2023-02-08T10:55:44;16.00;;;14.60;;
4508;SDS011;2267;48.816;9.230;2023-02-08T10:58:20;16.50;;;14.70;;
4508;SDS011;2267;48.816;9.230;2023-02-08T11:00:49;16.43;;;14.13;;
4508;SDS011;2267;48.816;9.230;2023-02-08T11:03:21;16.30;;;14.80;;
4508;SDS011;2267;48.816;9.230;2023-02-08T11:05:48;15.20;;;13.60;;
4508;SDS011;2267;48.816;9.230;2023-02-08T11:08:16;14.83;;;13.50;;
4508;SDS011;2267;48.816;9.230;2023-02-08T11:10:55;15.83;;;14.30;;
4508;SDS011;2267;48.816;9.230;2023-02-08T11:14:04;13.80;;;12.50;;
4508;SDS011;2267;48.816;9.230;2023-02-08T11:16:19;13.20;;;12.00;;
4508;SDS011;2267;48.816;9.230;2023-02-08T11:26:41;13.90;;;12.60;;
4508;SDS011;2267;48.816;9.230;2023-02-08T11:34:30;15.03;;;13.63;;
4508;SDS011;2267;48.816;9.230;2023-02-08T11:37:19;13.27;;;11.87;;
4508;SDS011;2267;48.816;9.230;2023-02-08T11:39:49;12.77;;;11.50;;
4508;SDS011;2267;48.816;9.230;2023-02-08T11:42:21;12.53;;;11.37;;
4508;SDS011;2267;48.816;9.230;2023-02-08T11:44:50;13.10;;;11.90;;
4508;SDS011;2267;48.816;9.230;2023-02-08T11:47:26;11.37;;;10.27;;
4508;SDS011;2267;48.816;9.230;2023-02-08T11:49:59;13.80;;;9.63;;
4508;SDS011;2267;48.816;9.230;2023-02-08T11:52:29;11.70;;;9.77;;
4508;SDS011;2267;48.816;9.230;2023-02-08T11:58:13;10.30;;;9.30;;
4508;SDS011;2267;48.816;9.230;2023-02-08T12:03:43;10.33;;;8.93;;
4508;SDS011;2267;48.816;9.230;2023-02-08T12:22:26;8.87;;;8.17;;
4508;SDS011;2267;48.816;9.230;2023-02-08T12:50:40;7.50;;;6.50;;
4508;SDS011;2267;48.816;9.230;2023-02-08T12:56:00;8.67;;;7.77;;
4508;SDS011;2267;48.816;9.230;2023-02-08T13:01:33;8.10;;;6.93;;
4508;SDS011;2267;48.816;9.230;2023-02-08T13:06:39;7.57;;;6.53;;
4508;SDS011;2267;48.816;9.230;2023-02-08T13:11:53;9.13;;;7.80;;
4508;SDS011;2267;48.816;9.230;2023-02-08T13:17:42;8.63;;;6.40;;
4508;SDS011;2267;48.816;9.230;2023-02-08T13:22:48;7.60;;;7.00;;
4508;SDS011;2267;48.816;9.230;2023-02-08T13:25:34;8.00;;;7.20;;
4508;SDS011;2267;48.816;9.230;2023-02-08T13:28:02;7.27;;;6.57;;
4508;SDS011;2267;48.816;9.230;2023-02-08T13:30:32;7.07;;;6.20;;
4508;SDS011;2267;48.816;9.230;2023-02-08T13:33:16;6.53;;;5.83;;
4508;SDS011;2267;48.816;9.230;2023-02-08T13:35:49;7.20;;;6.50;;
4508;SDS011;2267;48.816;9.230;2023-02-08T13:41:00;6.80;;;6.20;;
4508;SDS011;2267;48.816;9.230;2023-02-08T13:43:34;8.13;;;7.30;;
4508;SDS011;2267;48.816;9.230;2023-02-08T13:46:05;8.33;;;6.90;;
4508;SDS011;2267;48.816;9.230;2023-02-08T13:48:43;7.13;;;6.43;;
4508;SDS011;2267;48.816;9.230;2023-02-08T14:04:38;7.40;;;6.70;;
4508;SDS011;2267;48.816;9.230;2023-02-08T14:07:13;7.73;;;7.00;;
4508;SDS011;2267;48.816;9.230;2023-02-08T14:10:12;7.97;;;7.30;;
4508;SDS011;2267;48.816;9.230;2023-02-08T14:15:24;9.13;;;8.30;;
4508;SDS011;2267;48.816;9.230;2023-02-08T14:17:54;9.50;;;8.13;;
4508;SDS011;2267;48.816;9.230;2023-02-08T14:23:23;7.57;;;6.80;;
4508;SDS011;2267;48.816;9.230;2023-02-08T14:25:53;8.80;;;7.90;;
4508;SDS011;2267;48.816;9.230;2023-02-08T14:28:24;8.90;;;8.13;;
4508;SDS011;2267;48.816;9.230;2023-02-08T14:30:52;7.70;;;7.00;;
4508;SDS011;2267;48.816;9.230;2023-02-08T14:33:25;9.23;;;8.30;;
4508;SDS011;2267;48.816;9.230;2023-02-08T14:36:02;8.83;;;7.93;;
4508;SDS011;2267;48.816;9.230;2023-02-08T14:44:57;9.63;;;8.60;;
4508;SDS011;2267;48.816;9.230;2023-02-08T14:49:38;10.90;;;9.40;;
4508;SDS011;2267;48.816;9.230;2023-02-08T14:52:12;10.10;;;9.10;;
4508;SDS011;2267;48.816;9.230;2023-02-08T14:54:45;9.10;;;8.30;;
4508;SDS011;2267;48.816;9.230;2023-02-08T14:57:23;11.27;;;10.17;;
4508;SDS011;2267;48.816;9.230;2023-02-08T14:59:58;9.77;;;8.50;;
4508;SDS011;2267;48.816;9.230;2023-02-08T15:02:44;10.87;;;9.87;;
4508;SDS011;2267;48.816;9.230;2023-02-08T15:07:58;10.70;;;9.60;;
4508;SDS011;2267;48.816;9.230;2023-02-08T15:10:27;9.70;;;8.80;;
4508;SDS011;2267;48.816;9.230;2023-02-08T15:12:56;10.10;;;9.20;;
4508;SDS011;2267;48.816;9.230;2023-02-08T15:15:33;11.23;;;10.17;;
4508;SDS011;2267;48.816;9.230;2023-02-08T15:18:14;9.13;;;8.30;;
4508;SDS011;2267;48.816;9.230;2023-02-08T15:20:45;9.97;;;9.10;;
4508;SDS011;2267;48.816;9.230;2023-02-08T15:23:22;10.17;;;9.13;;
4508;SDS011;2267;48.816;9.230;2023-02-08T15:25:53;11.90;;;10.60;;
4508;SDS011;2267;48.816;9.230;2023-02-08T15:28:26;10.80;;;9.70;;
4508;SDS011;2267;48.816;9.230;2023-02-08T15:30:58;10.10;;;9.13;;
4508;SDS011;2267;48.816;9.230;2023-02-08T15:33:31;10.53;;;9.53;;
4508;SDS011;2267;48.816;9.230;2023-02-08T15:36:00;10.60;;;9.67;;
4508;SDS011;2267;48.816;9.230;2023-02-08T15:38:31;11.53;;;10.33;;
4508;SDS011;2267;48.816;9.230;2023-02-08T15:41:08;11.33;;;10.20;;
4508;SDS011;2267;48.816;9.230;2023-02-08T15:43:35;12.07;;;10.97;;
4508;SDS011;2267;48.816;9.230;2023-02-08T15:46:05;11.53;;;10.40;;
4508;SDS011;2267;48.816;9.230;2023-02-08T15:48:42;12.33;;;11.13;;
4508;SDS011;2267;48.816;9.230;2023-02-08T15:56:09;12.93;;;10.17;;
4508;SDS011;2267;48.816;9.230;2023-02-08T15:58:52;11.50;;;10.40;;
4508;SDS011;2267;48.816;9.230;2023-02-08T16:01:23;9.37;;;8.43;;
4508;SDS011;2267;48.816;9.230;2023-02-08T16:03:54;11.13;;;10.03;;
4508;SDS011;2267;48.816;9.230;2023-02-08T16:06:24;11.97;;;10.77;;
4508;SDS011;2267;48.816;9.230;2023-02-08T16:08:54;12.23;;;10.97;;
4508;SDS011;2267;48.816;9.230;2023-02-08T16:11:25;12.10;;;11.00;;
4508;SDS011;2267;48.816;9.230;2023-02-08T16:13:54;12.37;;;11.17;;
4508;SDS011;2267;48.816;9.230;2023-02-08T16:16:24;13.73;;;12.43;;
4508;SDS011;2267;48.816;9.230;2023-02-08T16:19:04;12.13;;;10.90;;
4508;SDS011;2267;48.816;9.230;2023-02-08T16:21:44;11.90;;;10.80;;
4508;SDS011;2267;48.816;9.230;2023-02-08T16:26:42;11.47;;;10.37;;
4508;SDS011;2267;48.816;9.230;2023-02-08T16:29:20;14.37;;;12.97;;
4508;SDS011;2267;48.816;9.230;2023-02-08T16:32:07;14.10;;;12.60;;
4508;SDS011;2267;48.816;9.230;2023-02-08T16:34:49;12.80;;;11.50;;
4508;SDS011;2267;48.816;9.230;2023-02-08T16:37:22;16.30;;;14.70;;
4508;SDS011;2267;48.816;9.230;2023-02-08T16:44:56;13.80;;;12.43;;
4508;SDS011;2267;48.816;9.230;2023-02-08T16:47:34;16.27;;;13.00;;
4508;SDS011;2267;48.816;9.230;2023-02-08T16:50:32;14.47;;;12.37;;
4508;SDS011;2267;48.816;9.230;2023-02-08T16:52:59;14.50;;;12.60;;
4508;SDS011;2267;48.816;9.230;2023-02-08T16:55:31;14.83;;;13.20;;
4508;SDS011;2267;48.816;9.230;2023-02-08T16:58:01;20.63;;;18.73;;
4508;SDS011;2267;48.816;9.230;2023-02-08T17:00:32;29.87;;;26.77;;
4508;SDS011;2267;48.816;9.230;2023-02-08T17:03:00;22.47;;;18.13;;
4508;SDS011;2267;48.816;9.230;2023-02-08T17:05:28;15.80;;;14.10;;
4508;SDS011;2267;48.816;9.230;2023-02-08T17:07:57;15.13;;;13.50;;
4508;SDS011;2267;48.816;9.230;2023-02-08T17:10:28;15.37;;;13.63;;
4508;SDS011;2267;48.816;9.230;2023-02-08T17:12:58;15.10;;;13.60;;
4508;SDS011;2267;48.816;9.230;2023-02-08T17:15:46;16.33;;;14.10;;
4508;SDS011;2267;48.816;9.230;2023-02-08T17:18:14;16.80;;;13.67;;
4508;SDS011;2267;48.816;9.230;2023-02-08T17:20:41;16.30;;;14.17;;
4508;SDS011;2267;48.816;9.230;2023-02-08T17:23:08;18.33;;;14.27;;
4508;SDS011;2267;48.816;9.230;2023-02-08T17:25:36;15.70;;;14.13;;
4508;SDS011;2267;48.816;9.230;2023-02-08T17:28:04;16.30;;;13.23;;
4508;SDS011;2267;48.816;9.230;2023-02-08T17:30:35;16.47;;;14.47;;
4508;SDS011;2267;48.816;9.230;2023-02-08T17:33:04;17.77;;;14.77;;
4508;SDS011;2267;48.816;9.230;2023-02-08T17:35:35;16.40;;;14.70;;
4508;SDS011;2267;48.816;9.230;2023-02-08T17:38:03;16.53;;;14.90;;
4508;SDS011;2267;48.816;9.230;2023-02-08T17:40:31;17.30;;;15.33;;
4508;SDS011;2267;48.816;9.230;2023-02-08T17:43:00;14.47;;;12.97;;
4508;SDS011;2267;48.816;9.230;2023-02-08T17:45:28;17.40;;;15.60;;
4508;SDS011;2267;48.816;9.230;2023-02-08T17:47:59;18.57;;;16.60;;
4508;SDS011;2267;48.816;9.230;2023-02-08T17:50:26;19.53;;;16.47;;
4508;SDS011;2267;48.816;9.230;2023-02-08T17:52:53;20.23;;;18.07;;
4508;SDS011;2267;48.816;9.230;2023-02-08T17:55:20;21.40;;;17.50;;
4508;SDS011;2267;48.816;9.230;2023-02-08T17:57:47;18.57;;;16.67;;
4508;SDS011;2267;48.816;9.230;2023-02-08T18:00:16;19.23;;;17.20;;
4508;SDS011;2267;48.816;9.230;2023-02-08T18:02:49;17.13;;;15.43;;
4508;SDS011;2267;48.816;9.230;2023-02-08T18:05:20;14.73;;;13.27;;
4508;SDS011;2267;48.816;9.230;2023-02-08T18:07:48;17.10;;;15.50;;
4508;SDS011;2267;48.816;9.230;2023-02-08T18:10:16;17.23;;;15.20;;
4508;SDS011;2267;48.816;9.230;2023-02-08T18:12:44;20.90;;;14.43;;
4508;SDS011;2267;48.816;9.230;2023-02-08T18:15:15;16.97;;;15.37;;
4508;SDS011;2267;48.816;9.230;2023-02-08T18:17:45;17.03;;;15.20;;
4508;SDS011;2267;48.816;9.230;2023-02-08T18:20:12;19.23;;;14.00;;
4508;SDS011;2267;48.816;9.230;2023-02-08T18:22:40;16.87;;;14.20;;
4508;SDS011;2267;48.816;9.230;2023-02-08T18:25:08;15.47;;;14.07;;
4508;SDS011;2267;48.816;9.230;2023-02-08T18:27:36;17.60;;;15.93;;
4508;SDS011;2267;48.816;9.230;2023-02-08T18:30:03;15.93;;;14.43;;
4508;SDS011;2267;48.816;9.230;2023-02-08T18:32:31;17.20;;;15.50;;
4508;SDS011;2267;48.816;9.230;2023-02-08T18:34:57;16.37;;;14.80;;